This site, now in its 15th season, is a labour of love and fun from one of Ottawa's most avid time trialists and number crunchers. It adheres to and is permitted by the laws of Canada, promotes the objectives of every bicycle club whose results are shown, and is donated free of charge by myself for your enjoyment and usage. If you would like results from series you ride in to be shown here, give me (celia@drmath.ca) a shout!


Index Page
ATT OTT WTT AATT CFCTT VVVTT
Help resultformat:
Case-sensitive

OBC Open TT Series - 1993-Jul-22 - 15km (Rockliffe Pkwy) (EvtFactor = 0.8971)

Weather (18:00): Cloudy. Temp.: 18.6C, Humidity: 64%, DewPoint: 11.6C, Wind: NNW 24km/h, Pressure: 99.84kPa, Visibility: 40.2km.
Weather (19:00): Mostly Cloudy. Temp.: 18.7C, Humidity: 63%, DewPoint: 11.6C, Wind: WNW 26km/h, Pressure: 99.84kPa, Visibility: 40.2km.
Weather (20:00): Mostly Cloudy. Temp.: 18.2C, Humidity: 65%, DewPoint: 11.5C, Wind: NW 22km/h, Pressure: 99.84kPa, Visibility: 40.2km.

Send photos with description (when/where/what) of yourself on or off of bike to celia@drmath.ca

 
 

BESTS?
 
1 Guenette, Jean-Yves OBC 20:56 42.994 1/41 OVAM 1/10 1.0609
2 Hunter, Philip --- 20:58 42.925 2/41 OSEM 1/20  
3 Brady, David OBC 21:32 41.796 3/41 OSEM 2/20 1.0520
4 Archambault, Marc OBC 21:36 41.667 4/41 OSEM 3/20 0.9256
5 Buffa, Alex  OBC 21:37 41.635 5/41 OSEM 4/20 1.0447
6 MacDonald, Ryan OBC 21:43 41.443 6/41 OSEM 5/20 1.0092
7 Price, Chris OBC 21:46 41.348 7/41 OSEM 6/20 1.0069
Statchuk, Craig OBC 21:46 41.348 7/41 OVAM 2/10 0.8980
9 Martignago, Mike OBC 21:57 41.002 9/41 OSEM 7/20 0.9729
10 Cheney, Jason OBC 22:00 40.909 10/41 OJUM 1/3 0.9553
11 Budd, Daniel OBC 22:01 40.878 11/41 OSEM 8/20 0.9887
12 St-Amour, Pierre OBC 22:04 40.785 12/41 OVAM 3/10 0.8639
13 Moore, Mike --- 22:05 40.755 13/41 OSEM 9/20 1.0414
14 Bence, John OBC 22:16 40.419 14/41 OSEM 10/20 1.0387
15 Heffler, Paul OBC 22:20 40.299 15/41 OSEM 11/20 0.9559
16 Leach, Mike --- 22:23 40.208 16/41 OSEM 12/20 1.1450
17 Ross, Ron OBC 22:43 39.618 17/41 OSEM 13/20  
18 Smallwood, Steve OBC 23:01 39.102 18/41 OVAM 4/10 0.9827
19 Pomeroy, Steve OBC 23:08 38.905 19/41 OVAM 5/10 0.9978
20 Montpetit, Stephane OBC 23:13 38.765 20/41 OSEM 14/20 0.8941
21 Arts, Michael OBC 23:16 38.682 21/41 OCAM 1/2 0.8169
22 Thériault, Louis OBC 23:20 38.571 22/41 OSEM 15/20 0.9127
23 d'Arras, Robert --- 23:53 37.683 23/41 OVAM 6/10 0.8268
24 Mahoney, Keith OBC 23:57 37.578 24/41 OSEM 16/20 0.8760
25 Montemurro, Mike --- 23:58 37.552 25/41 OSEM 17/20 0.9387
26 Hicks, Terry OBC 24:01 37.474 26/41 OVAM 7/10 0.9408
27 de Leon, Oscar --- 24:08 37.293 27/41 OSEM 18/20  
28 Revesz, Erika  OBC 24:13 37.164 28/41 OVAF 1/2 0.8586
29 St-Cyr, Michel --- 24:15 37.113 29/41 OSEM 19/20 1.0631
30 Anderson, Allan OBC 24:23 36.910 30/41 OVAM 8/10 0.9358
31 Murray, Ken OBC 24:33 36.660 31/41 OCAM 2/2  
32 Hays, Ryan OBC 24:52 36.193 32/41 U18M 1/1 0.8972
33 Poon, Clarence --- 25:12 35.714 33/41 XXM 1/1  
34 Aller, Mo OBC 25:29 35.317 34/41 OVCM 1/1 0.9863
35 Normandin, Sebastien OBC 25:48 34.884 35/41 OJUM 2/3  
36 Allen, Brent OBC 25:55 34.727 36/41 OSEM 20/20 0.9451
37 Hope, Walter --- 25:59 34.638 37/41 OVAM 9/10 0.8872
38 Ajersch, Mary  OBC 26:09 34.417 38/41 OVBF 1/1 0.9419
39 McInnis, Celia  OBC 26:24 34.091 39/41 OVAF 2/2 0.8307
40 James, Peter OBC 26:52 33.499 40/41 OVAM 10/10 0.9834
41 Fortey, Brian OBC 27:19 32.947 41/41 OJUM 3/3 1.1238
 
Average Speed of all of the above 41 finishes (615km in 16:05:01):38.238
>>>Average of the Average Speeds for these 41 finishes38.437<<<
 

The number of data records shown above is 41
The server processing of your query took: 1 wallclock secs ( 0.08 usr + 0.01 sys = 0.09 CPU)

Thanks to our Helpers: Jim Glover, Julie Murray.

     


Apr 9 (Good Friday) Apr 15 Apr 22 (cancelled) Apr 27 Apr 29
May 4 (10km) May 6 May 11 May 11 (10km) May 13 (22km) May 16 (40km) May 18 May 18 (10km) May 20 May 25 May 25 (10km) May 27 (38km) May 30 (40km)
Jun 1 Jun 3 Jun 8 Jun 10 (22km) Jun 15 Jun 17 Jun 22 Jun 22 Jun 24 (38km) Jun 25 Jun 27 (40km/80km) Jun 29 Jun 29 Jun 30
Jul 6 Jul 6 Jul 8 Jul 13 Jul 13 Jul 15 (38km) Jul 20 Jul 20
  Jul 22  
Jul 25 (80km) Jul 27 Jul 29 (22km)
Aug 3 Aug 3 Aug 5 Aug 7 (38km) Aug 10 Aug 10 Aug 12 Aug 15 (40km/80km) Aug 17 Aug 19 Aug 21 (22km) Aug 24 Aug 24 Aug 26 Aug 29 (40km) Aug 31 (Invitational)
Sep 2 Sep 7 Sep 9 Sep 14 Sep 16 Sep 25 (40km)

OTT Rankings
Best       Best by category
WTT Rankings for OBC Members
5 Best 15km     5 Best 15km by category
OBC Member Best Three 15km Rankings
Overall     by category
OBC BAR Ranking
Overall     by category     Rider "Consistency-Graph"
ABC BAR Ranking
Overall     by category     Rider "Consistency-Graph"
Other years
TT Calculator All TT People All TT events
ABC Home VVV Home
CKAP GOLD MEDAL
Other Links

Please send your comments and suggestions to: Celia McInnis
Copyright © 1998-2011 Celia McInnis. All rights reserved. Links are welcomed.